Time;durP1;ratioP1;P1;durP2;ratioP2;P2;SDS_P1;SDS_P2;PMS_P1;PMS_P2;Temp;Humidity;BMP_temperature;BMP_pressure;BME280_temperature;BME280_humidity;BME280_pressure;Samples;Min_cycle;Max_cycle;Signal;HPM_P1;HPM_P2
2023/05/07 00:03:13;;;;;;;0.73;0.22;;;;;;;20.27;43.17;101479.78;16118660;19;129522;-43
2023/05/07 00:08:35;;;;;;;0.30;0.20;;;;;;;20.26;43.15;101486.41;16118693;19;129113;-41
2023/05/07 00:13:57;;;;;;;1.33;0.20;;;;;;;20.23;43.09;101479.44;16117682;19;129427;-43
2023/05/07 00:19:19;;;;;;;1.88;0.30;;;;;;;20.23;43.29;101479.44;16116582;19;129677;-43
2023/05/07 00:24:41;;;;;;;0.63;0.25;;;;;;;20.23;43.51;101484.16;16114927;19;131690;-41
2023/05/07 00:30:03;;;;;;;0.93;0.20;;;;;;;20.21;43.31;101472.44;16118881;19;130995;-42
2023/05/07 00:35:25;;;;;;;0.93;0.20;;;;;;;20.21;43.19;101469.66;16116709;19;129816;-43
2023/05/07 00:40:47;;;;;;;1.17;0.40;;;;;;;20.20;42.98;101471.56;16115952;19;129720;-42
2023/05/07 00:46:09;;;;;;;0.60;0.20;;;;;;;20.18;43.39;101465.44;16116550;19;129906;-41
2023/05/07 00:51:32;;;;;;;3.15;0.43;;;;;;;20.18;43.27;101457.09;16113291;19;131897;-40
2023/05/07 00:56:55;;;;;;;0.70;0.47;;;;;;;20.17;43.10;101452.63;16115581;19;130713;-40
2023/05/07 01:02:17;;;;;;;0.90;0.47;;;;;;;20.17;43.11;101458.19;16117664;19;130741;-42
2023/05/07 01:07:40;;;;;;;1.13;0.30;;;;;;;20.16;43.49;101447.31;16113095;19;130631;-40
2023/05/07 01:13:03;;;;;;;2.50;0.65;;;;;;;20.15;43.12;101446.47;16116624;19;130413;-41
2023/05/07 01:18:26;;;;;;;1.35;0.40;;;;;;;20.13;43.20;101435.59;16115354;19;132090;-50
2023/05/07 01:23:48;;;;;;;0.52;0.50;;;;;;;20.13;43.08;101423.66;16113831;19;130573;-41
2023/05/07 01:29:10;;;;;;;2.22;0.40;;;;;;;20.13;43.05;101429.22;16109708;19;131307;-41
2023/05/07 01:34:36;;;;;;;1.13;0.40;;;;;;;20.11;43.45;101418.34;16112396;19;130325;-40
2023/05/07 01:39:58;;;;;;;0.73;0.35;;;;;;;20.10;43.28;101424.13;16113678;19;129346;-40
2023/05/07 01:45:23;;;;;;;2.28;0.40;;;;;;;20.10;43.11;101429.69;16110964;19;130461;-42
2023/05/07 01:50:47;;;;;;;1.70;0.40;;;;;;;20.08;43.03;101429.94;16115414;19;129655;-41
2023/05/07 01:56:08;;;;;;;1.17;0.50;;;;;;;20.09;43.03;101436.31;16114431;19;129986;-41
2023/05/07 02:01:30;;;;;;;0.43;0.30;;;;;;;20.09;43.08;101428.00;16111526;19;130514;-40
2023/05/07 02:06:52;;;;;;;0.30;0.20;;;;;;;20.07;43.18;101435.72;16110707;19;130723;-40
2023/05/07 02:12:14;;;;;;;0.38;0.20;;;;;;;20.05;43.45;101422.09;16113438;19;130975;-40
2023/05/07 02:17:57;;;;;;;0.82;0.40;;;;;;;20.06;43.19;101423.78;16111649;19;130270;-40
2023/05/07 02:23:19;;;;;;;0.40;0.20;;;;;;;20.06;42.95;101436.84;16104078;19;130780;-40
2023/05/07 02:28:40;;;;;;;0.68;0.30;;;;;;;20.05;43.12;101435.16;16104837;19;135230;-41
2023/05/07 02:34:03;;;;;;;0.52;0.20;;;;;;;20.04;43.13;101439.84;16110545;19;131165;-40
2023/05/07 02:39:25;;;;;;;0.47;0.20;;;;;;;20.03;43.32;101442.88;16107289;19;129915;-41
2023/05/07 02:44:47;;;;;;;0.52;0.20;;;;;;;20.03;43.37;101442.88;16111746;19;129530;-44
2023/05/07 02:50:09;;;;;;;0.22;0.20;;;;;;;20.01;43.14;101442.25;16123075;19;129967;-45
2023/05/07 02:55:31;;;;;;;1.00;0.50;;;;;;;20.01;43.40;101431.16;16124835;19;131187;-40
2023/05/07 03:00:56;;;;;;;0.52;0.40;;;;;;;19.99;43.37;101429.47;16122716;19;130307;-40
2023/05/07 03:06:18;;;;;;;0.20;0.20;;;;;;;19.98;43.17;101418.56;16123358;19;130837;-41
2023/05/07 03:11:40;;;;;;;0.32;0.32;;;;;;;19.99;43.10;101425.81;16122782;19;133312;-41
2023/05/07 03:17:02;;;;;;;0.35;0.22;;;;;;;19.98;43.36;101433.28;16123029;19;131836;-43
2023/05/07 03:22:24;;;;;;;0.45;0.30;;;;;;;19.98;43.10;101429.69;16120509;19;129664;-40
2023/05/07 03:27:46;;;;;;;0.20;0.20;;;;;;;19.98;43.25;101426.91;16124751;19;130704;-40
2023/05/07 03:33:08;;;;;;;0.30;0.10;;;;;;;19.96;43.37;101443.78;16122920;19;129884;-40
2023/05/07 03:38:29;;;;;;;0.65;0.20;;;;;;;19.96;43.27;101442.97;16121857;19;130707;-40
2023/05/07 03:43:51;;;;;;;0.20;0.10;;;;;;;19.95;42.89;101436.56;16120238;19;130698;-41
2023/05/07 03:49:13;;;;;;;1.17;0.30;;;;;;;19.95;42.87;101433.78;16118683;19;130528;-43
2023/05/07 03:54:35;;;;;;;0.68;0.20;;;;;;;19.94;43.23;101442.34;16122534;19;130869;-44
2023/05/07 03:59:57;;;;;;;0.43;0.20;;;;;;;19.93;42.84;101449.84;16121874;19;130438;-40
2023/05/07 04:05:19;;;;;;;0.50;0.20;;;;;;;19.92;42.97;101448.16;16121732;19;129866;-40
2023/05/07 04:10:40;;;;;;;0.85;0.30;;;;;;;19.93;43.12;101449.00;16119816;19;135379;-39
2023/05/07 04:16:04;;;;;;;0.40;0.30;;;;;;;19.91;43.08;101459.50;16120629;19;129453;-43
2023/05/07 04:21:26;;;;;;;0.63;0.30;;;;;;;19.92;43.08;101461.19;16121018;19;129845;-41
2023/05/07 04:26:48;;;;;;;0.52;0.20;;;;;;;19.89;42.90;101448.66;16118971;19;130929;-39
2023/05/07 04:32:10;;;;;;;0.50;0.28;;;;;;;19.89;43.27;101440.31;16118066;19;130649;-41
2023/05/07 04:37:32;;;;;;;1.10;0.30;;;;;;;19.89;42.91;101443.09;16119501;19;129545;-41
2023/05/07 04:42:54;;;;;;;1.05;0.30;;;;;;;19.87;42.85;101442.47;16119413;19;130948;-42
2023/05/07 04:48:19;;;;;;;1.67;0.32;;;;;;;19.87;43.13;101441.66;16118500;19;129507;-41
2023/05/07 04:53:41;;;;;;;0.50;0.25;;;;;;;19.87;42.84;101439.72;16119511;19;133076;-40
2023/05/07 04:59:03;;;;;;;1.75;0.50;;;;;;;19.86;43.10;101449.13;16113844;19;129541;-42
2023/05/07 05:04:25;;;;;;;0.85;0.20;;;;;;;19.87;43.29;101449.97;16117965;19;130163;-40
2023/05/07 05:09:47;;;;;;;0.32;0.20;;;;;;;19.86;42.96;101456.63;16113850;19;129747;-40
2023/05/07 05:15:11;;;;;;;0.28;0.15;;;;;;;19.85;42.88;101461.31;16114118;19;129407;-40
2023/05/07 05:20:33;;;;;;;0.20;0.10;;;;;;;19.84;43.09;101456.84;16115305;19;130882;-41
2023/05/07 05:25:58;;;;;;;0.22;0.13;;;;;;;19.84;43.19;101459.63;16113099;19;129436;-41
2023/05/07 05:31:21;;;;;;;0.13;0.13;;;;;;;19.83;43.30;101460.69;16113569;19;129464;-39
2023/05/07 05:36:43;;;;;;;0.20;0.20;;;;;;;19.84;43.01;101468.81;16114716;19;129574;-41
2023/05/07 05:42:05;;;;;;;0.55;0.55;;;;;;;19.84;43.24;101474.38;16112887;19;129748;-42
2023/05/07 05:47:27;;;;;;;0.70;0.40;;;;;;;19.87;43.18;101484.13;16112254;19;131007;-41
2023/05/07 05:52:49;;;;;;;0.30;0.30;;;;;;;19.83;43.26;101482.91;16114305;19;130516;-41
2023/05/07 05:58:11;;;;;;;0.25;0.20;;;;;;;19.90;42.77;101492.00;16113785;19;130655;-40
2023/05/07 06:03:33;;;;;;;0.28;0.10;;;;;;;20.02;42.79;101482.84;16112294;19;133267;-40
2023/05/07 06:08:55;;;;;;;0.10;0.10;;;;;;;20.11;42.45;101484.16;16112064;19;130268;-42
2023/05/07 06:14:17;;;;;;;1.25;0.28;;;;;;;20.17;42.40;101493.44;16113424;19;130897;-41
2023/05/07 06:19:38;;;;;;;0.47;0.10;;;;;;;20.19;42.40;101485.72;16117651;19;129842;-40
2023/05/07 06:25:00;;;;;;;0.10;0.10;;;;;;;20.20;42.58;101492.97;16126314;19;129650;-41
2023/05/07 06:30:22;;;;;;;0.28;0.10;;;;;;;20.18;42.54;101490.44;16127275;19;131123;-40
2023/05/07 06:35:44;;;;;;;1.05;0.20;;;;;;;20.18;42.71;101500.69;16126523;19;129847;-42
2023/05/07 06:41:07;;;;;;;0.30;0.20;;;;;;;20.16;42.72;101495.41;16126041;19;130537;-40
2023/05/07 06:46:29;;;;;;;0.32;0.20;;;;;;;20.14;42.35;101500.34;16125142;19;129428;-40
2023/05/07 06:51:51;;;;;;;0.68;0.20;;;;;;;20.11;42.68;101510.00;16126264;19;130531;-42
2023/05/07 06:57:12;;;;;;;3.22;0.30;;;;;;;20.10;42.79;101513.88;16122305;19;129696;-40
2023/05/07 07:02:34;;;;;;;0.88;0.40;;;;;;;20.08;42.55;101512.41;16124568;19;131598;-44
2023/05/07 07:07:56;;;;;;;0.30;0.20;;;;;;;20.06;42.75;101525.72;16123236;19;129576;-39
2023/05/07 07:13:19;;;;;;;0.57;0.20;;;;;;;20.05;42.87;101535.13;16115673;19;131472;-40
2023/05/07 07:18:41;;;;;;;0.60;0.20;;;;;;;20.05;42.52;101529.59;16116138;19;129724;-39
2023/05/07 07:24:03;;;;;;;0.82;0.20;;;;;;;20.04;42.53;101531.50;16121460;19;131382;-39
2023/05/07 07:29:26;;;;;;;0.30;0.20;;;;;;;20.04;42.76;101544.56;16119671;19;129526;-41
2023/05/07 07:34:48;;;;;;;0.20;0.20;;;;;;;20.03;42.57;101549.25;16123426;19;131230;-39
2023/05/07 07:40:11;;;;;;;0.70;0.40;;;;;;;20.06;42.71;101542.38;16122834;19;131456;-39
2023/05/07 07:45:34;;;;;;;0.50;0.20;;;;;;;20.05;42.47;101557.34;16121498;19;130540;-39
2023/05/07 07:50:56;;;;;;;0.10;0.10;;;;;;;20.06;42.54;101547.94;16123338;19;130114;-37
2023/05/07 07:56:18;;;;;;;0.57;0.30;;;;;;;20.07;42.69;101544.03;16118044;19;129676;-39
2023/05/07 08:01:40;;;;;;;1.13;0.10;;;;;;;20.09;42.74;101541.88;16118540;19;130423;-39
2023/05/07 08:07:01;;;;;;;0.47;0.30;;;;;;;20.12;42.96;101552.50;16114536;19;129463;-39
2023/05/07 08:12:24;;;;;;;1.98;0.70;;;;;;;20.15;42.63;101546.47;16121329;19;130995;-39
2023/05/07 08:17:46;;;;;;;4.70;0.80;;;;;;;20.21;42.79;101550.22;16119845;19;133043;-39
2023/05/07 08:23:08;;;;;;;4.18;1.10;;;;;;;20.31;43.33;101557.97;16116755;19;129366;-39
2023/05/07 08:28:29;;;;;;;11.05;1.40;;;;;;;20.37;43.43;101560.59;16122139;19;129610;-39
2023/05/07 08:33:51;;;;;;;9.57;1.70;;;;;;;20.45;43.46;101553.81;16119629;19;130252;-40
2023/05/07 08:39:15;;;;;;;8.68;1.80;;;;;;;20.51;43.44;101558.41;16119853;19;129960;-42
2023/05/07 08:44:38;;;;;;;12.45;1.85;;;;;;;20.58;43.82;101578.56;16117180;19;129962;-40
2023/05/07 08:50:01;;;;;;;6.88;1.70;;;;;;;20.63;43.82;101582.56;16115719;19;129001;-39
2023/05/07 08:55:24;;;;;;;8.38;1.70;;;;;;;20.65;43.87;101577.63;16117030;19;130612;-40
2023/05/07 09:00:47;;;;;;;11.60;2.03;;;;;;;20.68;43.99;101583.53;16116110;19;129796;-40
2023/05/07 09:06:08;;;;;;;13.77;1.90;;;;;;;20.70;44.01;101580.50;16114015;19;130887;-40
2023/05/07 09:11:30;;;;;;;15.68;2.47;;;;;;;20.71;43.91;101584.97;16110328;19;129538;-41
2023/05/07 09:16:53;;;;;;;12.48;2.00;;;;;;;20.70;44.23;101592.47;16111353;19;129915;-39
2023/05/07 09:22:15;;;;;;;10.02;2.22;;;;;;;20.73;44.46;101596.69;16107285;19;132349;-41
2023/05/07 09:27:37;;;;;;;11.05;2.58;;;;;;;20.74;44.46;101603.94;16105202;19;130265;-40
2023/05/07 09:33:01;;;;;;;8.60;2.10;;;;;;;20.74;44.49;101603.94;16109912;19;130413;-39
2023/05/07 09:38:23;;;;;;;12.05;2.63;;;;;;;20.77;44.72;101611.84;16109435;19;129690;-40
2023/05/07 09:43:45;;;;;;;9.77;2.50;;;;;;;20.78;44.66;101621.88;16110135;19;130902;-39
2023/05/07 09:49:13;;;;;;;16.92;3.05;;;;;;;20.76;44.96;101618.47;16110613;19;129952;-39
2023/05/07 09:54:37;;;;;;;11.88;2.33;;;;;;;20.76;45.10;101615.72;16108375;19;130887;-40
2023/05/07 10:00:02;;;;;;;9.82;2.58;;;;;;;20.78;45.43;101616.31;16105968;19;130295;-41
2023/05/07 10:05:25;;;;;;;10.53;3.90;;;;;;;20.76;45.59;101621.25;16107834;19;129496;-39
2023/05/07 10:10:48;;;;;;;13.13;3.60;;;;;;;20.76;45.74;101618.47;16102172;19;130632;-43
2023/05/07 10:16:10;;;;;;;7.25;3.03;;;;;;;20.77;45.37;101631.31;16106279;19;131661;-42
2023/05/07 10:21:56;;;;;;;13.27;3.65;;;;;;;20.80;45.97;101630.78;16094460;19;129723;-40
2023/05/07 10:27:20;;;;;;;17.10;3.77;;;;;;;20.79;45.46;101634.69;16096963;19;129582;-40
2023/05/07 10:32:55;;;;;;;13.77;3.33;;;;;;;20.80;45.86;101636.34;16098417;19;129660;-41
2023/05/07 10:38:17;;;;;;;10.68;3.50;;;;;;;20.81;45.63;101646.38;16102828;19;130934;-40
2023/05/07 10:43:44;;;;;;;7.97;3.83;;;;;;;20.83;45.85;101654.50;16105610;19;131978;-41
2023/05/07 10:49:06;;;;;;;7.75;3.00;;;;;;;20.82;45.80;101658.38;16103344;19;135150;-39
2023/05/07 10:54:28;;;;;;;6.22;3.38;;;;;;;20.80;45.88;101655.81;16107463;19;130577;-40
2023/05/07 10:59:50;;;;;;;7.82;2.72;;;;;;;20.77;45.93;101664.66;16098097;19;130455;-39
2023/05/07 11:05:22;;;;;;;10.63;3.22;;;;;;;20.75;46.31;101666.81;16110147;19;129665;-39
2023/05/07 11:10:48;;;;;;;20.52;3.67;;;;;;;20.72;45.91;101664.50;16122092;19;131662;-42
2023/05/07 11:16:24;;;;;;;21.08;3.90;;;;;;;20.69;46.28;101667.75;16125387;19;130583;-40
2023/05/07 11:21:48;;;;;;;24.38;3.70;;;;;;;20.65;46.28;101672.13;16114316;19;130212;-41
2023/05/07 11:27:10;;;;;;;22.67;3.03;;;;;;;20.65;46.57;101677.69;16120388;19;129641;-42
2023/05/07 11:32:32;;;;;;;52.15;4.47;;;;;;;20.59;46.61;101685.91;16124217;19;129458;-43
2023/05/07 11:38:00;;;;;;;64.88;5.18;;;;;;;20.64;46.71;101671.28;16116134;19;130605;-41
2023/05/07 11:43:22;;;;;;;36.60;4.28;;;;;;;20.65;47.09;101669.34;16120905;19;129947;-42
2023/05/07 11:48:44;;;;;;;73.93;5.88;;;;;;;20.67;46.68;101669.97;16115551;19;130460;-45
2023/05/07 11:54:11;;;;;;;57.53;5.60;;;;;;;20.69;46.84;101673.31;16114272;19;130831;-41
2023/05/07 11:59:40;;;;;;;86.13;6.63;;;;;;;20.73;47.04;101671.75;16117984;19;130233;-43
2023/05/07 12:05:02;;;;;;;69.82;5.90;;;;;;;20.74;46.97;101676.25;16117247;19;129390;-42
2023/05/07 12:10:24;;;;;;;65.78;6.07;;;;;;;20.79;46.99;101672.75;16119822;19;130569;-38
2023/05/07 12:15:50;;;;;;;48.17;5.05;;;;;;;20.84;46.72;101672.88;16116649;19;131623;-42
2023/05/07 12:21:12;;;;;;;;;;;;;;;20.86;46.82;101679.06;16117351;19;130482;-42
2023/05/07 12:26:38;;;;;;;46.63;5.15;;;;;;;20.91;46.91;101670.81;16115884;19;129356;-43
2023/05/07 12:32:00;;;;;;;52.30;5.13;;;;;;;20.95;46.88;101682.28;16114890;19;130220;-45
2023/05/07 12:37:25;;;;;;;39.83;5.10;;;;;;;20.98;47.27;101679.03;16118817;19;130601;-40
2023/05/07 12:42:54;;;;;;;67.13;5.18;;;;;;;21.02;47.30;101683.03;16116849;19;130269;-42
2023/05/07 12:48:19;;;;;;;38.53;4.88;;;;;;;21.09;47.07;101685.66;16115185;19;130024;-43
2023/05/07 12:53:42;;;;;;;54.03;5.00;;;;;;;21.16;46.84;101695.59;16117979;19;129857;-42
2023/05/07 12:59:05;;;;;;;36.45;3.75;;;;;;;21.25;46.57;101695.19;16114638;19;131446;-44
2023/05/07 13:04:27;;;;;;;42.72;3.88;;;;;;;21.33;46.56;101692.00;16119136;19;129992;-41
2023/05/07 13:09:49;;;;;;;41.03;3.38;;;;;;;21.40;46.19;101698.31;16110469;19;130290;-40
2023/05/07 13:15:11;;;;;;;46.22;4.55;;;;;;;21.45;46.18;101703.97;16109490;19;130075;-46
2023/05/07 13:20:33;;;;;;;37.67;3.60;;;;;;;21.49;45.85;101705.19;16114281;19;130882;-41
2023/05/07 13:25:55;;;;;;;25.92;3.38;;;;;;;21.52;45.97;101712.19;16114263;19;129950;-42
2023/05/07 13:31:17;;;;;;;31.70;3.70;;;;;;;21.54;45.79;101709.19;16110619;19;129752;-41
2023/05/07 13:36:41;;;;;;;19.92;2.58;;;;;;;21.57;45.93;101712.31;16112775;19;130928;-40
2023/05/07 13:42:03;;;;;;;22.95;2.58;;;;;;;21.60;45.46;101716.53;16111314;19;129575;-40
2023/05/07 13:47:25;;;;;;;19.23;2.78;;;;;;;21.60;45.49;101716.53;16113011;19;130391;-45
2023/05/07 13:52:50;;;;;;;14.93;2.65;;;;;;;21.63;45.16;101716.06;16110951;19;131289;-45
2023/05/07 13:58:12;;;;;;;18.85;2.47;;;;;;;21.64;45.22;101714.97;16111942;19;129531;-43
2023/05/07 14:03:34;;;;;;;17.40;2.28;;;;;;;21.64;45.04;101715.78;16116106;19;129397;-41
2023/05/07 14:08:57;;;;;;;8.00;1.70;;;;;;;21.64;45.05;101714.97;16115524;19;131828;-40
2023/05/07 14:14:19;;;;;;;18.83;1.70;;;;;;;21.64;45.19;101721.34;16112869;19;130127;-40
2023/05/07 14:19:41;;;;;;;15.02;1.90;;;;;;;21.63;45.18;101716.06;16114768;19;129547;-43
2023/05/07 14:25:03;;;;;;;14.52;1.70;;;;;;;21.62;45.04;101723.53;16115863;19;129723;-46
2023/05/07 14:30:27;;;;;;;6.20;1.83;;;;;;;21.59;44.90;101726.84;16113835;19;130348;-45
2023/05/07 14:35:49;;;;;;;10.88;1.45;;;;;;;21.56;45.15;101737.59;16111260;19;130888;-47
2023/05/07 14:41:12;;;;;;;9.65;1.00;;;;;;;21.52;45.27;101729.78;16112248;19;129834;-46
2023/05/07 14:46:34;;;;;;;7.47;1.30;;;;;;;21.49;45.33;101718.25;16125935;19;130277;-44
2023/05/07 14:51:58;;;;;;;10.48;1.25;;;;;;;21.47;45.35;101717.66;16121167;19;130067;-43
2023/05/07 14:57:19;;;;;;;6.82;1.20;;;;;;;21.45;45.37;101715.09;16123447;19;131309;-47
2023/05/07 15:02:41;;;;;;;7.25;1.10;;;;;;;21.43;46.02;101711.72;16139991;19;130568;-43
2023/05/07 15:08:03;;;;;;;6.05;0.90;;;;;;;21.43;45.70;101713.66;16144201;19;129120;-43
2023/05/07 15:13:25;;;;;;;3.38;0.80;;;;;;;21.40;46.07;101712.22;16137178;19;131472;-45
2023/05/07 15:18:48;;;;;;;5.53;1.02;;;;;;;21.38;46.03;101717.19;16119939;19;131220;-43
2023/05/07 15:24:10;;;;;;;6.28;1.00;;;;;;;21.35;46.06;101726.03;16117652;19;129772;-43
2023/05/07 15:29:32;;;;;;;3.35;0.82;;;;;;;21.32;46.12;101720.94;16114033;19;130465;-44
2023/05/07 15:34:53;;;;;;;6.38;0.98;;;;;;;21.30;46.17;101717.53;16113070;19;130149;-41
2023/05/07 15:40:16;;;;;;;2.83;0.75;;;;;;;21.27;46.22;101709.72;16121821;19;131736;-43
2023/05/07 15:45:42;;;;;;;3.40;0.80;;;;;;;21.25;46.57;101711.88;16116401;19;130173;-44
2023/05/07 15:51:06;;;;;;;5.45;0.80;;;;;;;21.21;46.70;101709.59;16105149;19;130065;-45
2023/05/07 15:56:31;;;;;;;5.70;0.90;;;;;;;21.19;46.50;101714.53;16118207;19;130422;-40
2023/05/07 16:01:54;;;;;;;5.05;0.98;;;;;;;21.19;46.76;101714.53;16123131;19;129488;-44
2023/05/07 16:07:16;;;;;;;5.47;1.10;;;;;;;21.20;47.39;101707.91;16112275;19;130399;-40
2023/05/07 16:12:37;;;;;;;4.53;1.30;;;;;;;21.21;46.85;101720.72;16117498;19;129994;-40
2023/05/07 16:18:00;;;;;;;6.28;1.30;;;;;;;21.20;47.01;101718.19;16109393;19;130178;-39
2023/05/07 16:23:21;;;;;;;4.57;1.27;;;;;;;21.22;46.91;101727.16;16108629;19;131597;-40
2023/05/07 16:28:44;;;;;;;6.40;1.30;;;;;;;21.21;47.02;101728.25;16103417;19;129566;-40
2023/05/07 16:34:06;;;;;;;5.82;1.23;;;;;;;21.20;46.81;101732.09;16111362;19;130497;-41
2023/05/07 16:39:28;;;;;;;4.13;1.08;;;;;;;21.18;47.10;101732.31;16116387;19;131599;-43
2023/05/07 16:44:50;;;;;;;3.42;1.20;;;;;;;21.17;47.46;101738.16;16117284;19;131262;-42
2023/05/07 16:50:12;;;;;;;4.78;0.95;;;;;;;21.21;47.55;101742.97;16112093;19;129770;-47
2023/05/07 16:55:38;;;;;;;3.45;1.10;;;;;;;21.25;47.27;101737.75;16118159;19;131348;-45
2023/05/07 17:01:01;;;;;;;3.17;1.10;;;;;;;21.25;47.50;101736.94;16115343;19;129490;-41
2023/05/07 17:06:23;;;;;;;5.25;1.23;;;;;;;21.26;47.40;101735.84;16113380;19;130007;-46
2023/05/07 17:11:44;;;;;;;3.58;1.48;;;;;;;21.22;47.42;101727.97;16113463;19;130034;-44
2023/05/07 17:17:06;;;;;;;2.78;1.83;;;;;;;21.23;47.53;101734.41;16109165;19;130520;-40
2023/05/07 17:22:28;;;;;;;7.95;3.72;;;;;;;21.21;47.58;101742.97;16111345;19;130276;-42
2023/05/07 17:27:51;;;;;;;7.22;5.03;;;;;;;21.21;47.80;101742.97;16112795;19;130506;-43
2023/05/07 17:33:13;;;;;;;9.10;4.85;;;;;;;21.20;47.54;101746.84;16111547;19;131053;-40
2023/05/07 17:38:42;;;;;;;5.30;4.50;;;;;;;21.19;47.51;101761.84;16109920;19;129391;-39
2023/05/07 17:44:04;;;;;;;8.65;5.25;;;;;;;21.17;47.62;101764.03;16107085;19;131132;-39
2023/05/07 17:49:26;;;;;;;7.80;6.15;;;;;;;21.16;47.95;101767.94;16111441;19;130663;-42
2023/05/07 17:54:48;;;;;;;7.07;5.85;;;;;;;21.15;47.41;101766.22;16101132;19;130931;-40
2023/05/07 18:00:11;;;;;;;9.85;7.43;;;;;;;21.14;48.09;101772.88;16107196;19;131014;-39
2023/05/07 18:05:36;;;;;;;11.88;9.02;;;;;;;21.15;48.02;101771.78;16108671;19;130095;-38
2023/05/07 18:10:59;;;;;;;11.93;9.00;;;;;;;21.15;47.91;101782.06;16101568;19;129800;-40
2023/05/07 18:16:21;;;;;;;20.15;10.90;;;;;;;21.13;47.88;101785.09;16112103;19;130297;-41
2023/05/07 18:21:43;;;;;;;15.30;9.45;;;;;;;21.16;48.18;101784.63;16120570;19;130767;-38
2023/05/07 18:27:05;;;;;;;15.30;8.82;;;;;;;21.33;48.54;101783.84;16120973;19;131202;-40
2023/05/07 18:32:27;;;;;;;14.82;7.75;;;;;;;21.63;47.98;101782.88;16122623;19;130479;-41
2023/05/07 18:37:49;;;;;;;14.02;7.43;;;;;;;21.92;47.98;101788.47;16129208;19;129619;-38
2023/05/07 18:43:11;;;;;;;11.48;7.20;;;;;;;22.18;47.42;101791.75;16124533;19;130923;-40
2023/05/07 18:48:32;;;;;;;8.13;5.80;;;;;;;22.38;47.53;101794.09;16119952;19;131738;-38
2023/05/07 18:53:54;;;;;;;17.88;6.90;;;;;;;22.48;47.04;101797.06;16115911;19;129746;-39
2023/05/07 18:59:16;;;;;;;19.15;6.85;;;;;;;22.54;47.21;101803.59;16118686;19;130842;-39
2023/05/07 19:04:39;;;;;;;16.13;8.20;;;;;;;22.54;47.16;101809.16;16123375;19;130829;-41
2023/05/07 19:10:01;;;;;;;21.95;8.43;;;;;;;22.51;47.24;101816.09;16117718;19;133622;-38
2023/05/07 19:15:26;;;;;;;12.45;7.45;;;;;;;22.45;47.40;101817.13;16118510;19;130613;-43
2023/05/07 19:20:48;;;;;;;15.43;7.50;;;;;;;22.39;46.92;101830.13;16117445;19;130152;-39
2023/05/07 19:26:15;;;;;;;16.17;7.05;;;;;;;22.32;47.16;101840.56;16112715;19;130826;-41
2023/05/07 19:31:36;;;;;;;13.45;6.63;;;;;;;22.24;47.51;101860.47;16117037;19;129977;-39
2023/05/07 19:36:58;;;;;;;11.73;6.40;;;;;;;22.15;47.31;101867.53;16118609;19;130572;-39
2023/05/07 19:42:20;;;;;;;15.55;6.70;;;;;;;22.07;47.67;101877.94;16119270;19;130030;-39
2023/05/07 19:47:42;;;;;;;12.75;6.32;;;;;;;21.98;47.70;101879.44;16121110;19;129417;-39
2023/05/07 19:53:04;;;;;;;16.38;5.65;;;;;;;21.89;47.70;101886.47;16114365;19;131357;-40
2023/05/07 19:58:26;;;;;;;15.70;5.68;;;;;;;21.80;48.24;101895.19;16107669;19;131940;-38
2023/05/07 20:03:48;;;;;;;18.40;5.45;;;;;;;21.76;48.31;101905.16;16125136;19;130436;-39
2023/05/07 20:09:11;;;;;;;14.18;4.20;;;;;;;21.73;48.67;101899.19;16122489;19;130840;-40
2023/05/07 20:14:33;;;;;;;10.43;3.58;;;;;;;21.73;48.84;101905.63;16116841;19;129192;-39
2023/05/07 20:19:55;;;;;;;9.45;3.17;;;;;;;21.69;48.81;101901.63;16122604;19;131314;-40
2023/05/07 20:25:17;;;;;;;11.95;3.20;;;;;;;21.66;48.87;101900.19;16119645;19;129378;-43
2023/05/07 20:30:39;;;;;;;16.58;2.80;;;;;;;21.64;48.92;101898.75;16120228;19;129125;-39
2023/05/07 20:36:01;;;;;;;8.85;2.50;;;;;;;21.60;49.23;101894.75;16123944;19;131488;-39
2023/05/07 20:41:26;;;;;;;10.88;2.47;;;;;;;21.55;49.02;101902.97;16115925;19;130909;-39
2023/05/07 20:46:48;;;;;;;8.00;2.30;;;;;;;21.50;49.20;101907.34;16115924;19;129385;-39
2023/05/07 20:52:10;;;;;;;5.78;1.90;;;;;;;21.46;48.93;101906.09;16111152;19;132016;-39
2023/05/07 20:57:32;;;;;;;5.40;2.05;;;;;;;21.42;48.92;101909.59;16108154;19;130352;-39
2023/05/07 21:02:54;;;;;;;6.47;2.08;;;;;;;21.37;48.75;101910.34;16114484;19;129355;-39
2023/05/07 21:08:16;;;;;;;5.57;1.45;;;;;;;21.32;48.71;101911.06;16113400;19;131223;-39
2023/05/07 21:13:38;;;;;;;9.77;1.70;;;;;;;21.30;49.09;101924.38;16111052;19;129418;-40
2023/05/07 21:19:00;;;;;;;6.97;1.73;;;;;;;21.25;48.98;101932.56;16104766;19;130936;-40
2023/05/07 21:24:23;;;;;;;2.65;1.10;;;;;;;21.20;48.99;101930.50;16111133;19;130996;-39
2023/05/07 21:29:45;;;;;;;4.78;1.17;;;;;;;21.16;48.44;101940.44;16111566;19;130982;-39
2023/05/07 21:35:07;;;;;;;3.75;1.13;;;;;;;21.14;48.82;101937.06;16111138;19;130903;-38
2023/05/07 21:40:29;;;;;;;3.22;0.77;;;;;;;21.11;48.92;101942.25;16109778;19;131042;-39
2023/05/07 21:45:51;;;;;;;4.53;0.82;;;;;;;21.08;48.90;101938.00;16113252;19;130625;-39
2023/05/07 21:51:13;;;;;;;1.05;0.57;;;;;;;21.06;48.95;101942.94;16105771;19;131422;-39
2023/05/07 21:56:34;;;;;;;1.42;0.95;;;;;;;21.04;48.66;101934.00;16109512;19;130890;-39
2023/05/07 22:01:56;;;;;;;3.13;0.90;;;;;;;21.01;48.57;101934.47;16111411;19;130101;-38
2023/05/07 22:07:18;;;;;;;6.47;0.80;;;;;;;20.98;49.09;101927.47;16116222;19;130514;-39
2023/05/07 22:12:40;;;;;;;2.22;0.73;;;;;;;20.97;48.79;101938.81;16107636;19;131095;-39
2023/05/07 22:18:02;;;;;;;1.75;0.52;;;;;;;20.94;48.54;101937.38;16100103;19;130672;-39
2023/05/07 22:23:24;;;;;;;2.38;0.60;;;;;;;20.93;48.84;101940.38;16105878;19;131195;-39
2023/05/07 22:28:46;;;;;;;1.67;0.50;;;;;;;20.90;48.57;101927.78;16109157;19;130797;-40
2023/05/07 22:34:08;;;;;;;1.55;0.45;;;;;;;20.89;48.57;101932.53;16104779;19;129835;-39
2023/05/07 22:39:33;;;;;;;1.27;0.43;;;;;;;20.87;48.71;101925.47;16109705;19;131487;-38
2023/05/07 22:44:55;;;;;;;0.80;0.30;;;;;;;20.86;48.85;101934.94;16108283;19;130274;-39
2023/05/07 22:50:17;;;;;;;1.38;0.40;;;;;;;20.84;48.86;101937.94;16102975;19;130357;-39
2023/05/07 22:55:39;;;;;;;0.73;0.40;;;;;;;20.83;48.82;101941.78;16105662;19;129840;-39
2023/05/07 23:01:01;;;;;;;1.42;0.47;;;;;;;20.80;48.87;101936.69;16105325;19;131497;-39
2023/05/07 23:06:23;;;;;;;1.40;0.60;;;;;;;20.80;49.14;101933.91;16122556;19;129464;-39
2023/05/07 23:11:45;;;;;;;1.23;0.40;;;;;;;20.79;48.81;101936.94;16119070;19;130656;-39
2023/05/07 23:17:07;;;;;;;0.70;0.28;;;;;;;20.76;48.79;101932.72;16119027;19;129661;-39
2023/05/07 23:22:29;;;;;;;0.68;0.22;;;;;;;20.75;48.87;101934.63;16115613;19;131210;-39
2023/05/07 23:27:51;;;;;;;2.47;0.25;;;;;;;20.74;48.63;101937.63;16119115;19;130304;-39
2023/05/07 23:33:12;;;;;;;1.15;0.30;;;;;;;20.72;48.75;101934.22;16124204;19;130081;-40
2023/05/07 23:38:34;;;;;;;0.80;0.32;;;;;;;20.71;48.83;101938.09;16119306;19;130580;-39
2023/05/07 23:43:56;;;;;;;0.43;0.20;;;;;;;20.69;48.87;101945.81;16108959;19;129426;-39
2023/05/07 23:49:18;;;;;;;0.80;0.30;;;;;;;20.67;48.71;101942.44;16113063;19;129432;-40
2023/05/07 23:54:40;;;;;;;0.28;0.20;;;;;;;20.67;48.69;101943.28;16114796;19;130745;-38
